Time;durP1;ratioP1;P1;durP2;ratioP2;P2;SDS_P1;SDS_P2;PMS_P1;PMS_P2;Temp;Humidity;BMP_temperature;BMP_pressure;BME280_temperature;BME280_humidity;BME280_pressure;Samples;Min_cycle;Max_cycle;Signal;HPM_P1;HPM_P2
2023/09/06 00:01:05;;;;;;;5.20;3.77;;;;;;;14.84;100.00;98531.69;4978234;28;20226;-82
2023/09/06 00:03:32;;;;;;;5.13;3.80;;;;;;;14.84;100.00;98530.88;4978755;28;20521;-82
2023/09/06 00:05:59;;;;;;;4.73;3.40;;;;;;;14.80;100.00;98530.22;4978055;28;20241;-82
2023/09/06 00:08:27;;;;;;;5.60;3.83;;;;;;;14.79;100.00;98528.53;4978004;28;20226;-82
2023/09/06 00:10:54;;;;;;;5.20;4.23;;;;;;;14.74;100.00;98527.22;4977950;28;20250;-82
2023/09/06 00:13:21;;;;;;;4.63;3.60;;;;;;;14.68;100.00;98525.06;4978578;28;20221;-82
2023/09/06 00:15:48;;;;;;;4.43;3.63;;;;;;;14.68;100.00;98531.25;4978278;28;20211;-82
2023/09/06 00:18:14;;;;;;;4.43;3.70;;;;;;;14.66;100.00;98522.50;4978414;28;20732;-82
2023/09/06 00:20:41;;;;;;;4.53;3.80;;;;;;;14.70;100.00;98517.78;4978247;28;20242;-82
2023/09/06 00:23:09;;;;;;;4.10;3.60;;;;;;;14.65;100.00;98519.97;4981350;28;20207;-80
2023/09/06 00:25:38;;;;;;;4.87;3.70;;;;;;;14.61;100.00;98529.19;4979101;28;20596;-81
2023/09/06 00:28:06;;;;;;;4.40;3.60;;;;;;;14.54;100.00;98523.47;4978690;28;20285;-84
2023/09/06 00:30:33;;;;;;;5.77;3.77;;;;;;;14.49;100.00;98530.97;4979023;28;20238;-84
2023/09/06 00:33:01;;;;;;;4.20;3.43;;;;;;;14.47;100.00;98526.72;4979435;28;20595;-84
2023/09/06 00:35:27;;;;;;;5.13;4.03;;;;;;;14.41;100.00;98521.91;4978525;28;20211;-80
2023/09/06 00:37:55;;;;;;;5.20;4.00;;;;;;;14.35;100.00;98527.72;4978720;28;20320;-81
2023/09/06 00:40:22;;;;;;;4.37;3.70;;;;;;;14.36;100.00;98524.09;4977384;28;20242;-82
2023/09/06 00:42:52;;;;;;;4.67;3.90;;;;;;;14.42;100.00;98528.94;4977737;28;20265;-82
2023/09/06 00:45:22;;;;;;;5.43;3.83;;;;;;;14.35;100.00;98522.41;4979673;28;20211;-82
2023/09/06 00:47:49;;;;;;;5.00;3.80;;;;;;;14.32;100.00;98527.94;4979785;28;20234;-80
2023/09/06 00:50:17;;;;;;;4.83;3.73;;;;;;;14.29;100.00;98518.41;4977738;28;20241;-81
2023/09/06 00:52:44;;;;;;;5.23;3.77;;;;;;;14.24;100.00;98520.56;4977700;28;20210;-79
2023/09/06 00:55:11;;;;;;;5.97;4.37;;;;;;;14.22;100.00;98521.63;4978295;28;20408;-79
2023/09/06 00:57:40;;;;;;;4.93;3.97;;;;;;;14.21;100.00;98533.25;4978155;28;20207;-79
2023/09/06 01:00:14;;;;;;;4.97;4.17;;;;;;;14.14;100.00;98524.03;4978131;28;20214;-79
2023/09/06 01:02:41;;;;;;;5.40;4.20;;;;;;;14.12;100.00;98528.63;4978088;28;20214;-79
2023/09/06 01:05:07;;;;;;;8.77;4.03;;;;;;;14.10;100.00;98531.38;4978382;28;20214;-80
2023/09/06 01:07:36;;;;;;;5.20;4.20;;;;;;;14.05;100.00;98527.41;4978670;28;20687;-79
2023/09/06 01:10:03;;;;;;;5.63;3.57;;;;;;;14.03;100.00;98526.66;4978500;28;20230;-79
2023/09/06 01:12:30;;;;;;;5.90;3.70;;;;;;;13.98;100.00;98524.34;4978270;28;20222;-79
2023/09/06 01:14:57;;;;;;;5.93;4.10;;;;;;;13.94;100.00;98519.41;4978224;28;20211;-79
2023/09/06 01:17:27;;;;;;;5.13;4.07;;;;;;;13.85;100.00;98512.97;4978948;28;20226;-80
2023/09/06 01:19:58;;;;;;;5.70;3.83;;;;;;;13.81;100.00;98521.31;4978434;28;20191;-79
2023/09/06 01:22:32;;;;;;;5.47;4.37;;;;;;;13.77;100.00;98519.84;4978258;28;20221;-79
2023/09/06 01:24:59;;;;;;;5.03;4.00;;;;;;;13.71;100.00;98517.63;4978853;28;20218;-79
2023/09/06 01:27:27;;;;;;;5.97;4.50;;;;;;;13.65;100.00;98520.75;4978196;28;20215;-79
2023/09/06 01:29:53;;;;;;;5.83;4.30;;;;;;;13.59;100.00;98518.56;4978378;28;20231;-79
2023/09/06 01:32:20;;;;;;;6.40;4.70;;;;;;;13.53;100.00;98516.38;4978129;28;20210;-79
2023/09/06 01:34:46;;;;;;;5.53;4.37;;;;;;;13.53;100.00;98513.72;4977718;28;20207;-79
2023/09/06 01:37:12;;;;;;;5.13;4.17;;;;;;;13.50;100.00;98511.31;4977768;28;20354;-79
2023/09/06 01:39:39;;;;;;;6.20;4.80;;;;;;;13.45;100.00;98519.59;4978397;28;20215;-79
2023/09/06 01:42:07;;;;;;;6.40;4.23;;;;;;;13.46;100.00;98513.31;4977800;28;20721;-79
2023/09/06 01:44:33;;;;;;;6.60;4.60;;;;;;;13.43;100.00;98507.38;4977636;28;20555;-80
2023/09/06 01:47:03;;;;;;;6.70;4.77;;;;;;;13.39;100.00;98505.94;4977885;28;20237;-79
2023/09/06 01:49:30;;;;;;;6.43;4.93;;;;;;;13.37;100.00;98510.50;4977591;28;20235;-79
2023/09/06 01:51:57;;;;;;;6.27;4.87;;;;;;;13.35;100.00;98517.72;4977383;28;20235;-80
2023/09/06 01:54:24;;;;;;;6.33;4.77;;;;;;;13.33;100.00;98509.06;4977563;28;20211;-79
2023/09/06 01:56:50;;;;;;;5.53;4.80;;;;;;;13.31;100.00;98506.50;4977662;28;20221;-79
2023/09/06 01:59:18;;;;;;;6.23;4.33;;;;;;;13.32;100.00;98504.72;4977397;28;20218;-80
2023/09/06 02:01:45;;;;;;;6.10;4.80;;;;;;;13.29;100.00;98499.59;4977048;28;20231;-80
2023/09/06 02:04:11;;;;;;;6.93;4.50;;;;;;;13.33;100.00;98506.41;4977524;28;20237;-80
2023/09/06 02:06:38;;;;;;;6.73;4.90;;;;;;;13.34;100.00;98508.09;4977818;28;20215;-79
2023/09/06 02:09:05;;;;;;;6.53;4.30;;;;;;;13.30;100.00;98507.47;4977037;28;20226;-79
2023/09/06 02:11:34;;;;;;;5.77;4.87;;;;;;;13.34;100.00;98502.78;4976941;28;20668;-80
2023/09/06 02:14:00;;;;;;;4.87;4.03;;;;;;;13.25;100.00;98509.59;4977585;28;20215;-79
2023/09/06 02:16:28;;;;;;;8.03;4.40;;;;;;;13.22;100.00;98506.34;4976765;28;20218;-80
2023/09/06 02:18:54;;;;;;;5.90;4.50;;;;;;;13.15;100.00;98510.41;4977608;28;20214;-79
2023/09/06 02:21:21;;;;;;;5.53;4.20;;;;;;;13.10;100.00;98507.25;4976893;28;20733;-80
2023/09/06 02:23:47;;;;;;;6.73;4.80;;;;;;;13.04;100.00;98508.53;4976983;28;20211;-79
2023/09/06 02:26:14;;;;;;;6.20;4.70;;;;;;;13.04;100.00;98511.19;4977100;28;20207;-79
2023/09/06 02:28:40;;;;;;;5.93;4.73;;;;;;;13.05;100.00;98514.69;4977478;28;20230;-80
2023/09/06 02:31:07;;;;;;;6.27;4.27;;;;;;;13.06;100.00;98509.28;4977016;28;20230;-80
2023/09/06 02:33:35;;;;;;;6.10;5.13;;;;;;;13.05;100.00;98499.63;4977816;28;20215;-80
2023/09/06 02:36:02;;;;;;;6.57;5.03;;;;;;;13.04;100.00;98513.00;4977860;28;20221;-80
2023/09/06 02:38:28;;;;;;;6.70;4.77;;;;;;;13.04;100.00;98502.38;4977523;28;20237;-80
2023/09/06 02:40:55;;;;;;;6.57;4.70;;;;;;;13.04;100.00;98510.34;4980068;28;20231;-80
2023/09/06 02:43:22;;;;;;;5.90;4.80;;;;;;;12.98;100.00;98508.13;4980132;28;20415;-80
2023/09/06 02:45:53;;;;;;;6.43;4.57;;;;;;;12.92;100.00;98509.41;4976059;28;20214;-80
2023/09/06 02:48:21;;;;;;;5.33;4.50;;;;;;;12.90;100.00;98505.16;4976183;28;20277;-80
2023/09/06 02:50:49;;;;;;;5.40;4.60;;;;;;;12.86;100.00;98507.19;4976174;28;20230;-80
2023/09/06 02:53:19;;;;;;;5.03;4.40;;;;;;;12.82;100.00;98508.38;4976478;28;20893;-80
2023/09/06 02:55:47;;;;;;;5.77;4.57;;;;;;;12.81;100.00;98503.16;4976420;28;20215;-80
2023/09/06 02:58:15;;;;;;;6.30;4.50;;;;;;;12.76;100.00;98508.81;4974768;28;20210;-80
2023/09/06 03:00:43;;;;;;;6.33;4.40;;;;;;;12.73;100.00;98509.03;4975844;28;20245;-80
2023/09/06 03:03:10;;;;;;;5.70;4.20;;;;;;;12.70;100.00;98511.91;4976140;28;20723;-80
2023/09/06 03:05:41;;;;;;;5.73;4.20;;;;;;;12.71;100.00;98504.81;4976182;28;20213;-80
2023/09/06 03:08:09;;;;;;;6.37;4.90;;;;;;;12.69;100.00;98498.75;4976027;28;20215;-80
2023/09/06 03:10:35;;;;;;;6.67;5.13;;;;;;;12.71;100.00;98499.50;4975412;28;20341;-80
2023/09/06 03:13:02;;;;;;;7.43;5.27;;;;;;;12.72;100.00;98501.19;4975844;28;20219;-80
2023/09/06 03:15:29;;;;;;;6.80;5.13;;;;;;;12.71;100.00;98504.81;4975989;28;20673;-80
2023/09/06 03:17:58;;;;;;;7.20;5.27;;;;;;;12.67;100.00;98508.63;4975955;28;20211;-80
2023/09/06 03:20:32;;;;;;;8.37;5.13;;;;;;;12.65;100.00;98506.06;4975828;28;20256;-80
2023/09/06 03:22:59;;;;;;;6.57;4.87;;;;;;;12.67;100.00;98512.13;4976203;28;20198;-80
2023/09/06 03:25:28;;;;;;;7.13;5.13;;;;;;;12.71;100.00;98518.88;4975648;28;20215;-80
2023/09/06 03:27:59;;;;;;;7.27;5.50;;;;;;;12.69;100.00;98517.31;4974552;28;20590;-80
2023/09/06 03:30:27;;;;;;;9.43;5.07;;;;;;;12.62;100.00;98516.06;4975068;28;20650;-80
2023/09/06 03:32:54;;;;;;;6.73;5.23;;;;;;;12.61;100.00;98519.66;4976149;28;20215;-80
2023/09/06 03:35:22;;;;;;;7.93;5.43;;;;;;;12.66;100.00;98520.19;4975800;28;20623;-80
2023/09/06 03:37:49;;;;;;;6.63;4.73;;;;;;;12.62;100.00;98516.06;4975749;28;20234;-80
2023/09/06 03:40:25;;;;;;;6.60;4.80;;;;;;;12.58;100.00;98514.56;4975377;28;20238;-80
2023/09/06 03:42:54;;;;;;;8.17;5.17;;;;;;;12.54;100.00;98515.75;4975752;28;20622;-80
2023/09/06 03:45:24;;;;;;;7.57;5.33;;;;;;;12.54;100.00;98521.06;4976264;28;20211;-80
2023/09/06 03:47:51;;;;;;;7.13;5.37;;;;;;;12.50;100.00;98515.13;4975995;28;20217;-80
2023/09/06 03:50:18;;;;;;;6.80;5.37;;;;;;;12.51;100.00;98513.31;4975406;28;20768;-80
2023/09/06 03:52:44;;;;;;;8.80;5.60;;;;;;;12.49;100.00;98516.09;4976199;28;20580;-81
2023/09/06 03:55:11;;;;;;;5.80;4.87;;;;;;;12.50;100.00;98511.63;4975676;28;20222;-80
2023/09/06 03:57:38;;;;;;;6.37;5.10;;;;;;;12.49;100.00;98517.88;4975593;28;20211;-80
2023/09/06 04:00:24;;;;;;;7.43;4.83;;;;;;;12.44;100.00;98525.31;4975607;28;20249;-80
2023/09/06 04:02:52;;;;;;;6.13;4.53;;;;;;;12.39;100.00;98520.34;4975960;28;20206;-80
2023/09/06 04:05:22;;;;;;;7.00;5.10;;;;;;;12.36;100.00;98509.09;4975643;28;20226;-80
2023/09/06 04:07:50;;;;;;;6.23;5.17;;;;;;;12.33;100.00;98510.16;4975279;28;20211;-79
2023/09/06 04:10:17;;;;;;;8.30;5.33;;;;;;;12.33;100.00;98517.25;4975154;28;20249;-79
2023/09/06 04:12:43;;;;;;;6.83;4.80;;;;;;;12.32;100.00;98512.91;4975521;28;20284;-79
2023/09/06 04:15:13;;;;;;;6.77;4.97;;;;;;;12.27;100.00;98517.69;4975460;28;20222;-79
2023/09/06 04:17:41;;;;;;;6.60;4.87;;;;;;;12.25;100.00;98514.31;4976119;28;20571;-83
2023/09/06 04:20:19;;;;;;;7.23;5.07;;;;;;;12.21;100.00;98518.97;4977511;28;20207;-85
2023/09/06 04:22:46;;;;;;;7.27;5.40;;;;;;;12.25;100.00;98516.94;4976072;28;20210;-86
2023/09/06 04:25:16;;;;;;;8.73;5.97;;;;;;;12.19;100.00;98512.94;4978535;28;20250;-85
2023/09/06 04:27:44;;;;;;;7.73;5.60;;;;;;;12.18;100.00;98513.03;4978581;28;20268;-84
2023/09/06 04:30:15;;;;;;;7.67;5.30;;;;;;;12.20;100.00;98513.78;4977202;28;20230;-84
2023/09/06 04:32:44;;;;;;;6.30;4.70;;;;;;;12.16;100.00;98517.59;4977277;28;20245;-84
2023/09/06 04:35:10;;;;;;;6.20;4.63;;;;;;;12.12;100.00;98513.47;4977478;28;20265;-86
2023/09/06 04:37:38;;;;;;;7.10;5.47;;;;;;;12.08;100.00;98504.03;4978393;28;20221;-86
2023/09/06 04:40:08;;;;;;;8.60;5.60;;;;;;;12.11;100.00;98523.19;4981214;28;20214;-84
2023/09/06 04:42:35;;;;;;;8.03;5.33;;;;;;;12.09;100.00;98522.47;4987063;28;20217;-81
2023/09/06 04:45:01;;;;;;;6.97;5.40;;;;;;;12.12;100.00;98534.66;4985327;28;20218;-80
2023/09/06 04:47:30;;;;;;;7.50;5.40;;;;;;;12.15;100.00;98527.34;4985414;28;20209;-79
2023/09/06 04:49:57;;;;;;;8.27;5.67;;;;;;;12.15;100.00;98537.94;4986733;28;20238;-80
2023/09/06 04:52:24;;;;;;;7.70;5.67;;;;;;;12.11;100.00;98530.31;4984645;28;20233;-79
2023/09/06 04:54:52;;;;;;;6.60;5.07;;;;;;;12.09;100.00;98533.06;4979536;28;20224;-83
2023/09/06 04:57:18;;;;;;;8.50;5.90;;;;;;;12.08;100.00;98526.06;4979675;28;20744;-82
2023/09/06 04:59:45;;;;;;;8.70;6.00;;;;;;;12.13;100.00;98534.56;4980658;28;20577;-77
2023/09/06 05:02:11;;;;;;;7.33;5.37;;;;;;;12.17;100.00;98541.31;4984498;28;20233;-83
2023/09/06 05:04:39;;;;;;;7.30;5.90;;;;;;;12.22;100.00;98538.38;4985278;28;20225;-85
2023/09/06 05:07:06;;;;;;;7.97;5.83;;;;;;;12.22;100.00;98539.22;4980727;28;20337;-83
2023/09/06 05:09:34;;;;;;;7.80;5.97;;;;;;;12.23;100.00;98534.78;4979166;28;20465;-84
2023/09/06 05:12:00;;;;;;;10.00;6.67;;;;;;;12.32;100.00;98544.72;4979241;28;20249;-80
2023/09/06 05:14:29;;;;;;;8.90;5.60;;;;;;;12.30;100.00;98542.16;4979051;28;20214;-80
2023/09/06 05:16:55;;;;;;;7.43;5.00;;;;;;;12.36;100.00;98540.91;4977023;28;20729;-78
2023/09/06 05:19:27;;;;;;;9.40;5.87;;;;;;;12.35;100.00;98533.91;4977777;28;20216;-78
2023/09/06 05:21:55;;;;;;;8.97;6.00;;;;;;;12.43;100.00;98534.22;4978589;28;20353;-80
2023/09/06 05:24:22;;;;;;;8.63;6.17;;;;;;;12.52;100.00;98541.50;4980244;28;20211;-80
2023/09/06 05:26:48;;;;;;;9.37;6.17;;;;;;;12.64;100.00;98536.19;4981668;28;20221;-79
2023/09/06 05:29:15;;;;;;;9.40;6.20;;;;;;;12.74;100.00;98539.03;4979847;28;20295;-79
2023/09/06 05:31:42;;;;;;;9.87;6.33;;;;;;;12.82;100.00;98540.19;4978071;28;20227;-79
2023/09/06 05:34:08;;;;;;;9.57;6.03;;;;;;;12.94;100.00;98541.09;4978653;28;20350;-80
2023/09/06 05:36:35;;;;;;;8.60;5.33;;;;;;;12.91;100.00;98544.81;4978195;28;20221;-80
2023/09/06 05:39:06;;;;;;;6.50;5.30;;;;;;;12.89;100.00;98544.09;4975963;28;20298;-77
2023/09/06 05:41:32;;;;;;;8.13;5.73;;;;;;;12.93;100.00;98534.97;4974160;28;20260;-77
2023/09/06 05:43:59;;;;;;;8.03;5.67;;;;;;;12.95;100.00;98534.88;4974556;28;20226;-77
2023/09/06 05:46:25;;;;;;;9.43;6.10;;;;;;;13.02;100.00;98536.16;4974758;28;20215;-79
2023/09/06 05:48:52;;;;;;;6.33;5.33;;;;;;;13.04;100.00;98544.84;4974613;28;20214;-77
2023/09/06 05:51:18;;;;;;;8.20;5.90;;;;;;;13.13;100.00;98550.31;4972981;28;20246;-77
2023/09/06 05:53:44;;;;;;;7.70;6.07;;;;;;;13.20;100.00;98554.22;4974289;28;20232;-77
2023/09/06 05:56:12;;;;;;;8.53;5.83;;;;;;;13.30;100.00;98557.03;4974235;28;20226;-77
2023/09/06 05:58:39;;;;;;;8.83;5.93;;;;;;;13.41;100.00;98555.31;4974439;28;20564;-79
2023/09/06 06:01:06;;;;;;;7.03;5.43;;;;;;;13.49;100.00;98563.56;4974268;28;20227;-77
2023/09/06 06:03:33;;;;;;;8.50;6.20;;;;;;;13.55;100.00;98556.94;4974257;28;20242;-77
2023/09/06 06:05:59;;;;;;;7.20;5.60;;;;;;;13.68;100.00;98552.41;4974175;28;20229;-77
2023/09/06 06:08:25;;;;;;;7.30;5.83;;;;;;;13.79;100.00;98560.41;4973982;28;20211;-77
2023/09/06 06:10:52;;;;;;;8.53;6.00;;;;;;;13.86;100.00;98554.53;4973410;28;20242;-77
2023/09/06 06:13:21;;;;;;;8.03;5.43;;;;;;;14.06;100.00;98558.34;4974041;28;20215;-78
2023/09/06 06:15:48;;;;;;;8.30;5.73;;;;;;;14.14;100.00;98566.56;4973930;28;20302;-77
2023/09/06 06:18:15;;;;;;;10.43;5.93;;;;;;;14.24;100.00;98564.94;4973885;28;20215;-77
2023/09/06 06:20:42;;;;;;;8.53;6.43;;;;;;;14.37;100.00;98565.66;4973469;28;20227;-77
2023/09/06 06:23:09;;;;;;;9.77;7.00;;;;;;;14.46;100.00;98572.91;4974227;28;20210;-77
2023/09/06 06:25:36;;;;;;;9.40;7.17;;;;;;;14.54;100.00;98571.34;4973614;28;20237;-77
2023/09/06 06:28:03;;;;;;;9.10;6.80;;;;;;;14.60;100.00;98567.38;4973871;28;20222;-77
2023/09/06 06:30:31;;;;;;;9.93;7.10;;;;;;;14.73;100.00;98565.47;4973411;28;20234;-77
2023/09/06 06:33:00;;;;;;;10.40;7.30;;;;;;;14.81;100.00;98568.34;4973629;28;20218;-77
2023/09/06 06:35:26;;;;;;;11.10;7.20;;;;;;;14.91;100.00;98569.31;4973380;28;20210;-77
2023/09/06 06:37:53;;;;;;;9.43;7.00;;;;;;;15.01;100.00;98564.94;4973429;28;20211;-79
2023/09/06 06:40:19;;;;;;;11.50;7.57;;;;;;;15.09;100.00;98562.53;4973371;28;20523;-78
2023/09/06 06:42:46;;;;;;;10.23;7.17;;;;;;;15.21;100.00;98569.53;4974669;28;20210;-78
2023/09/06 06:45:12;;;;;;;8.63;6.97;;;;;;;15.29;100.00;98572.41;4974034;28;20218;-77
2023/09/06 06:47:40;;;;;;;10.50;7.10;;;;;;;15.45;100.00;98570.22;4973511;28;20211;-77
2023/09/06 06:50:07;;;;;;;9.07;6.23;;;;;;;15.57;100.00;98570.06;4972886;28;20609;-77
2023/09/06 06:52:36;;;;;;;7.70;6.50;;;;;;;15.70;100.00;98572.56;4973102;28;20591;-76
2023/09/06 06:55:03;;;;;;;7.97;6.50;;;;;;;15.82;100.00;98569.72;4973350;28;20211;-79
2023/09/06 06:57:30;;;;;;;9.30;6.63;;;;;;;15.95;100.00;98569.53;4973352;28;20270;-77
2023/09/06 06:59:56;;;;;;;7.47;5.70;;;;;;;16.08;100.00;98564.88;4973024;28;20225;-77
2023/09/06 07:02:23;;;;;;;9.20;6.20;;;;;;;16.21;100.00;98561.88;4972909;28;20221;-79
2023/09/06 07:04:51;;;;;;;7.80;5.97;;;;;;;16.31;100.00;98562.78;4973090;28;20206;-77
2023/09/06 07:07:17;;;;;;;8.07;5.87;;;;;;;16.41;100.00;98566.38;4972862;28;20211;-77
2023/09/06 07:09:44;;;;;;;7.67;5.10;;;;;;;16.48;100.00;98570.22;4973286;28;20211;-79
2023/09/06 07:12:11;;;;;;;8.30;5.53;;;;;;;16.56;100.00;98565.06;4972613;28;20246;-77
2023/09/06 07:14:37;;;;;;;8.43;5.30;;;;;;;16.67;100.00;98567.66;4972816;28;20211;-77
2023/09/06 07:17:04;;;;;;;8.67;5.87;;;;;;;16.76;100.00;98566.00;4972832;28;20697;-77
2023/09/06 07:19:32;;;;;;;7.53;5.63;;;;;;;16.82;100.00;98568.97;4972737;28;20210;-77
2023/09/06 07:22:01;;;;;;;7.10;5.70;;;;;;;16.96;99.42;98570.44;4972770;28;20227;-77
2023/09/06 07:24:27;;;;;;;7.23;5.53;;;;;;;17.03;99.34;98572.44;4972784;28;20221;-77
2023/09/06 07:26:54;;;;;;;7.50;5.80;;;;;;;17.20;97.56;98577.13;4972691;28;20211;-77
2023/09/06 07:29:20;;;;;;;8.47;6.20;;;;;;;17.36;97.36;98573.91;4972768;28;20585;-77
2023/09/06 07:31:47;;;;;;;8.77;6.40;;;;;;;17.38;97.17;98575.50;4972378;28;20238;-79
2023/09/06 07:34:13;;;;;;;11.00;6.30;;;;;;;17.50;97.57;98569.06;4972578;28;20215;-77
2023/09/06 07:36:39;;;;;;;8.10;6.07;;;;;;;17.62;95.86;98559.94;4972768;28;20301;-77
2023/09/06 07:39:08;;;;;;;8.20;6.10;;;;;;;17.67;94.24;98568.38;4972864;28;20211;-77
2023/09/06 07:41:34;;;;;;;8.80;6.43;;;;;;;17.84;94.04;98559.69;4972394;28;20278;-77
2023/09/06 07:44:01;;;;;;;8.30;6.40;;;;;;;17.97;95.13;98567.41;4972718;28;20600;-79
2023/09/06 07:46:29;;;;;;;8.17;5.67;;;;;;;18.05;94.86;98557.69;4972523;28;20700;-77
2023/09/06 07:48:56;;;;;;;8.73;5.93;;;;;;;18.19;93.36;98553.72;4972380;28;20258;-77
2023/09/06 07:51:23;;;;;;;8.23;6.37;;;;;;;18.31;91.46;98553.47;4972212;28;20235;-77
2023/09/06 07:53:50;;;;;;;6.50;5.17;;;;;;;18.39;91.80;98558.94;4972673;28;20210;-77
2023/09/06 07:56:17;;;;;;;8.40;5.30;;;;;;;18.52;90.48;98555.97;4972517;28;20210;-78
2023/09/06 07:58:44;;;;;;;5.23;4.43;;;;;;;18.64;89.20;98552.94;4972545;28;20234;-77
2023/09/06 08:01:10;;;;;;;5.73;4.53;;;;;;;18.78;87.54;98554.31;4972146;28;20226;-78
2023/09/06 08:03:37;;;;;;;5.27;4.60;;;;;;;18.80;86.68;98549.66;4972725;28;20221;-77
2023/09/06 08:06:05;;;;;;;7.07;4.30;;;;;;;18.92;87.18;98557.38;4972613;28;20217;-79
2023/09/06 08:08:31;;;;;;;5.77;4.60;;;;;;;19.07;86.16;98547.00;4972620;28;20218;-77
2023/09/06 08:10:58;;;;;;;5.20;4.47;;;;;;;19.19;83.65;98546.66;4972083;28;20234;-79
2023/09/06 08:13:27;;;;;;;5.03;4.40;;;;;;;19.35;82.50;98548.72;4973223;28;20591;-79
2023/09/06 08:15:53;;;;;;;5.33;4.40;;;;;;;19.48;82.01;98547.34;4976451;28;20218;-79
2023/09/06 08:18:20;;;;;;;7.03;4.87;;;;;;;19.64;80.74;98552.03;4976298;28;20213;-77
2023/09/06 08:20:46;;;;;;;5.13;4.27;;;;;;;19.71;78.74;98548.59;4975765;28;20231;-77
2023/09/06 08:23:13;;;;;;;5.40;4.20;;;;;;;19.77;77.70;98548.00;4976380;28;20218;-79
2023/09/06 08:25:39;;;;;;;5.20;4.23;;;;;;;19.97;77.65;98556.72;4976474;28;20222;-79
2023/09/06 08:28:07;;;;;;;5.33;4.57;;;;;;;20.04;76.80;98545.22;4976005;28;20207;-77
2023/09/06 08:30:34;;;;;;;4.83;4.10;;;;;;;20.08;76.43;98546.63;4975445;28;20739;-77
2023/09/06 08:33:01;;;;;;;5.33;4.20;;;;;;;20.21;76.78;98552.44;4976164;28;20211;-79
2023/09/06 08:35:28;;;;;;;5.23;4.37;;;;;;;20.33;76.55;98551.19;4976286;28;20301;-79
2023/09/06 08:37:54;;;;;;;5.43;4.30;;;;;;;20.48;74.87;98544.25;4976428;28;20634;-79
2023/09/06 08:40:21;;;;;;;5.43;4.10;;;;;;;20.49;73.67;98545.91;4975784;28;20230;-77
2023/09/06 08:42:48;;;;;;;5.00;4.50;;;;;;;20.58;73.73;98544.13;4975999;28;20305;-80
2023/09/06 08:45:21;;;;;;;5.87;4.33;;;;;;;20.68;72.00;98534.97;4975947;28;20207;-78
2023/09/06 08:47:50;;;;;;;4.57;4.13;;;;;;;20.71;71.74;98534.66;4977564;28;20273;-78
2023/09/06 08:50:17;;;;;;;5.17;4.40;;;;;;;20.77;71.41;98531.31;4976830;28;20226;-78
2023/09/06 08:52:45;;;;;;;5.50;4.80;;;;;;;20.88;70.10;98533.78;4977348;28;20203;-78
2023/09/06 08:55:12;;;;;;;5.90;4.27;;;;;;;20.94;69.28;98527.75;4977714;28;20215;-78
2023/09/06 08:57:40;;;;;;;4.47;4.07;;;;;;;20.99;69.82;98533.50;4977386;28;20692;-78
2023/09/06 09:00:09;;;;;;;6.93;4.10;;;;;;;21.15;70.16;98538.91;4977066;28;20217;-78
2023/09/06 09:02:36;;;;;;;4.37;3.97;;;;;;;21.23;69.56;98538.97;4977028;28;20207;-78
2023/09/06 09:05:05;;;;;;;4.60;4.20;;;;;;;21.25;69.41;98545.03;4977299;28;20288;-79
2023/09/06 09:07:32;;;;;;;5.07;4.50;;;;;;;21.38;69.07;98542.72;4977445;28;20221;-78
2023/09/06 09:10:01;;;;;;;5.10;4.47;;;;;;;21.59;69.57;98544.97;4976992;28;20222;-78
2023/09/06 09:12:28;;;;;;;4.30;3.90;;;;;;;21.71;66.82;98530.22;4977284;28;20241;-78
2023/09/06 09:14:56;;;;;;;5.10;4.60;;;;;;;21.69;66.30;98527.69;4977405;28;20218;-78
2023/09/06 09:17:24;;;;;;;5.33;4.30;;;;;;;21.85;65.87;98524.16;4977248;28;20540;-78
2023/09/06 09:19:51;;;;;;;5.33;4.07;;;;;;;21.89;66.64;98525.53;4977361;28;20215;-78
2023/09/06 09:22:26;;;;;;;4.43;4.03;;;;;;;22.09;66.35;98530.44;4977248;28;20230;-78
2023/09/06 09:24:59;;;;;;;4.73;4.23;;;;;;;22.14;64.66;98519.97;4976540;28;20302;-78
2023/09/06 09:27:27;;;;;;;6.23;4.30;;;;;;;22.29;63.97;98522.81;4977178;28;20211;-78
2023/09/06 09:29:54;;;;;;;5.60;4.20;;;;;;;22.26;63.85;98523.19;4976941;28;20585;-78
2023/09/06 09:32:20;;;;;;;4.30;3.90;;;;;;;22.39;63.00;98508.19;4976954;28;20578;-78
2023/09/06 09:34:47;;;;;;;4.80;4.30;;;;;;;22.40;64.68;98523.34;4977255;28;20207;-78
2023/09/06 09:37:13;;;;;;;4.63;3.97;;;;;;;22.50;64.56;98517.78;4977273;28;20428;-78
2023/09/06 09:39:41;;;;;;;4.70;4.20;;;;;;;22.61;62.94;98506.66;4977011;28;20226;-78
2023/09/06 09:42:10;;;;;;;4.33;3.83;;;;;;;22.74;64.77;98521.25;4976610;28;20230;-78
2023/09/06 09:44:37;;;;;;;6.60;4.17;;;;;;;22.87;64.04;98513.47;4976902;28;20215;-78
2023/09/06 09:47:11;;;;;;;5.03;4.27;;;;;;;22.98;63.32;98512.28;4977178;28;20261;-78
2023/09/06 09:49:40;;;;;;;4.90;4.27;;;;;;;23.11;63.72;98517.94;4977024;28;20198;-78
2023/09/06 09:52:11;;;;;;;4.83;4.03;;;;;;;23.20;62.91;98512.38;4976636;28;20234;-78
2023/09/06 09:54:42;;;;;;;6.90;4.40;;;;;;;23.33;63.04;98507.25;4977035;28;20210;-78
2023/09/06 09:57:09;;;;;;;5.30;4.33;;;;;;;23.35;60.60;98490.91;4976611;28;20271;-78
2023/09/06 09:59:37;;;;;;;4.70;4.20;;;;;;;23.35;60.45;98494.41;4976482;28;20211;-78
2023/09/06 10:02:05;;;;;;;6.40;4.63;;;;;;;23.26;60.37;98490.09;4976049;28;20231;-78
2023/09/06 10:04:36;;;;;;;6.07;4.50;;;;;;;23.42;60.43;98494.56;4976755;28;20214;-78
2023/09/06 10:07:04;;;;;;;5.80;4.40;;;;;;;23.54;58.50;98482.34;4976298;28;20236;-78
2023/09/06 10:09:32;;;;;;;6.50;4.73;;;;;;;23.52;58.98;98496.00;4976106;28;20217;-79
2023/09/06 10:12:02;;;;;;;5.10;4.60;;;;;;;23.53;59.52;98494.16;4975583;28;20250;-78
2023/09/06 10:14:30;;;;;;;5.00;4.53;;;;;;;23.53;58.75;98489.59;4976227;28;20203;-78
2023/09/06 10:16:57;;;;;;;5.77;4.53;;;;;;;23.54;58.50;98488.56;4975630;28;20237;-79
2023/09/06 10:19:24;;;;;;;5.07;4.43;;;;;;;23.50;59.15;98498.06;4976325;28;20211;-78
2023/09/06 10:21:51;;;;;;;4.90;4.40;;;;;;;23.72;57.67;98485.59;4975645;28;20222;-78
2023/09/06 10:24:19;;;;;;;6.07;4.93;;;;;;;23.71;58.73;98494.72;4976241;28;20215;-78
2023/09/06 10:26:47;;;;;;;5.20;4.23;;;;;;;23.75;59.34;98485.22;4976068;28;20254;-78
2023/09/06 10:29:20;;;;;;;5.60;4.20;;;;;;;23.83;58.58;98487.88;4975885;28;20210;-78
2023/09/06 10:31:48;;;;;;;5.63;4.90;;;;;;;24.01;57.74;98480.34;4975966;28;20238;-78
2023/09/06 10:34:15;;;;;;;5.53;4.00;;;;;;;24.05;57.94;98482.50;4976333;28;20221;-78
2023/09/06 10:36:53;;;;;;;4.90;4.40;;;;;;;24.15;56.46;98469.56;4975773;28;20225;-78
2023/09/06 10:39:21;;;;;;;4.67;4.20;;;;;;;24.25;58.33;98482.84;4976344;28;20253;-78
2023/09/06 10:42:18;;;;;;;4.17;3.77;;;;;;;24.47;56.27;98471.97;4975478;28;20287;-78
2023/09/06 10:45:10;;;;;;;5.10;3.80;;;;;;;24.50;55.55;98466.16;4974859;28;20297;-78
2023/09/06 10:47:37;;;;;;;4.20;3.80;;;;;;;24.41;56.56;98477.25;4973101;28;20215;-78
2023/09/06 10:50:12;;;;;;;4.37;3.83;;;;;;;24.45;57.55;98482.09;4975227;28;20251;-79
2023/09/06 10:52:40;;;;;;;5.03;4.00;;;;;;;24.55;57.82;98479.97;4975445;28;20230;-78
2023/09/06 10:55:13;;;;;;;4.73;4.23;;;;;;;24.48;55.32;98452.00;4975890;28;20265;-78
2023/09/06 10:57:55;;;;;;;5.43;4.17;;;;;;;24.54;56.91;98472.91;4975653;28;20225;-79
2023/09/06 11:00:26;;;;;;;5.13;3.90;;;;;;;24.68;57.24;98472.09;4974869;28;20293;-78
2023/09/06 11:03:17;;;;;;;5.33;4.33;;;;;;;24.89;55.25;98458.69;4975843;28;20678;-78
2023/09/06 11:05:46;;;;;;;4.97;4.40;;;;;;;24.90;56.47;98462.19;4975345;28;20221;-78
2023/09/06 11:08:26;;;;;;;6.13;4.73;;;;;;;24.99;56.11;98455.69;4975218;28;20233;-79
2023/09/06 11:10:54;;;;;;;5.30;4.20;;;;;;;25.01;55.83;98454.47;4974556;28;20523;-79
2023/09/06 11:13:22;;;;;;;5.10;4.30;;;;;;;25.01;55.32;98451.75;4975318;28;20261;-78
2023/09/06 11:15:51;;;;;;;5.43;4.40;;;;;;;25.10;56.30;98466.00;4974900;28;20841;-79
2023/09/06 11:18:18;;;;;;;5.23;4.47;;;;;;;25.14;54.31;98446.50;4975263;28;20269;-78
2023/09/06 11:20:48;;;;;;;5.50;4.13;;;;;;;24.99;55.44;98451.09;4974745;28;20748;-79
2023/09/06 11:23:14;;;;;;;5.37;4.50;;;;;;;25.06;56.76;98452.00;4974868;28;20207;-79
2023/09/06 11:25:41;;;;;;;4.20;3.77;;;;;;;25.07;57.14;98459.13;4975258;28;20214;-79
2023/09/06 11:28:16;;;;;;;5.00;4.40;;;;;;;25.29;57.28;98463.56;4974998;28;20241;-78
2023/09/06 11:30:45;;;;;;;4.90;4.40;;;;;;;25.44;54.55;98439.19;4974160;28;20691;-79